Time;durP1;ratioP1;P1;durP2;ratioP2;P2;SDS_P1;SDS_P2;PMS_P1;PMS_P2;Temp;Humidity;BMP_temperature;BMP_pressure;BME280_temperature;BME280_humidity;BME280_pressure;Samples;Min_cycle;Max_cycle;Signal;HPM_P1;HPM_P2
2023/05/13 00:00:30;;;;;;;16.70;6.60;;;12.70;77.00;;;;;;5067263;28;20446;-66
2023/05/13 00:03:01;;;;;;;12.43;6.80;;;12.70;76.90;;;;;;5065672;28;20457;-65
2023/05/13 00:05:34;;;;;;;8.50;5.90;;;12.60;76.80;;;;;;5079038;28;20873;-65
2023/05/13 00:08:07;;;;;;;9.30;6.73;;;12.60;76.50;;;;;;5069655;28;20560;-66
2023/05/13 00:10:54;;;;;;;10.00;6.47;;;12.40;76.50;;;;;;5066416;28;20534;-66
2023/05/13 00:13:23;;;;;;;14.03;7.57;;;12.40;76.70;;;;;;5066702;28;20454;-65
2023/05/13 00:15:59;;;;;;;10.83;7.37;;;12.30;76.80;;;;;;5066824;28;20840;-65
2023/05/13 00:18:36;;;;;;;9.93;7.10;;;12.30;77.00;;;;;;5069448;28;20457;-66
2023/05/13 00:21:13;;;;;;;9.97;6.90;;;12.30;77.00;;;;;;5066793;28;21292;-65
2023/05/13 00:23:44;;;;;;;11.07;7.43;;;12.30;77.10;;;;;;5068302;28;20460;-65
2023/05/13 00:26:31;;;;;;;11.17;6.40;;;12.30;77.20;;;;;;5069926;28;20453;-65
2023/05/13 00:29:05;;;;;;;12.90;6.30;;;12.40;77.20;;;;;;5066735;28;20453;-66
2023/05/13 00:31:44;;;;;;;11.77;5.80;;;12.40;77.20;;;;;;5066124;28;20480;-67
2023/05/13 00:34:18;;;;;;;10.50;5.53;;;12.50;77.10;;;;;;5068996;28;20456;-65
2023/05/13 00:36:57;;;;;;;10.30;6.60;;;12.40;76.80;;;;;;5067675;28;20503;-67
2023/05/13 00:39:30;;;;;;;8.03;6.07;;;12.40;76.70;;;;;;5066823;28;20473;-65
2023/05/13 00:42:15;;;;;;;8.43;5.93;;;12.30;76.50;;;;;;5066504;28;20704;-67
2023/05/13 00:44:53;;;;;;;10.13;5.93;;;12.20;76.50;;;;;;5064781;28;20453;-65
2023/05/13 00:47:24;;;;;;;10.03;7.00;;;12.20;76.70;;;;;;5070233;28;20441;-65
2023/05/13 00:49:55;;;;;;;9.97;6.30;;;12.10;76.70;;;;;;5073447;28;20456;-65
2023/05/13 00:52:38;;;;;;;20.57;13.57;;;12.10;76.80;;;;;;5070777;28;20460;-68
2023/05/13 00:55:11;;;;;;;16.63;10.70;;;12.00;76.90;;;;;;5071698;28;20895;-67
2023/05/13 00:57:47;;;;;;;18.03;9.10;;;12.00;77.00;;;;;;5085762;28;20497;-65
2023/05/13 01:00:23;;;;;;;17.07;11.27;;;12.00;77.10;;;;;;5070726;28;20456;-68
2023/05/13 01:03:04;;;;;;;22.37;12.40;;;12.10;77.10;;;;;;5070739;28;20456;-67
2023/05/13 01:05:43;;;;;;;11.43;7.23;;;12.00;77.00;;;;;;5071474;28;20461;-65
2023/05/13 01:08:29;;;;;;;15.80;8.10;;;12.00;77.00;;;;;;5064570;28;20466;-67
2023/05/13 01:11:16;;;;;;;9.97;5.83;;;12.00;76.90;;;;;;5070570;28;20493;-66
2023/05/13 01:14:01;;;;;;;18.40;6.63;;;12.00;76.90;;;;;;5070870;28;20469;-68
2023/05/13 01:16:40;;;;;;;8.50;5.23;;;11.90;76.80;;;;;;5067045;28;20479;-65
2023/05/13 01:19:33;;;;;;;8.47;5.60;;;11.80;76.90;;;;;;5069243;28;20541;-66
2023/05/13 01:22:13;;;;;;;9.30;5.03;;;11.80;77.10;;;;;;5067203;28;20896;-65
2023/05/13 01:24:54;;;;;;;7.10;5.23;;;11.80;77.00;;;;;;5061279;28;20458;-65
2023/05/13 01:27:32;;;;;;;16.03;9.20;;;11.70;77.20;;;;;;5063675;28;20505;-65
2023/05/13 01:30:10;;;;;;;16.83;9.37;;;11.80;77.20;;;;;;5066674;28;20449;-65
2023/05/13 01:32:46;;;;;;;13.50;8.30;;;11.80;77.30;;;;;;5066875;28;20471;-65
2023/05/13 01:35:21;;;;;;;14.03;8.30;;;11.90;77.20;;;;;;5066835;28;20454;-65
2023/05/13 01:38:07;;;;;;;17.00;9.03;;;11.90;77.20;;;;;;5066315;28;20551;-65
2023/05/13 01:40:38;;;;;;;15.00;8.40;;;11.90;77.20;;;;;;5083413;28;21134;-65
2023/05/13 01:43:20;;;;;;;14.20;6.87;;;12.00;77.20;;;;;;5078707;28;20475;-65
2023/05/13 01:48:37;;;;;;;13.23;6.20;;;12.00;76.90;;;;;;5063136;28;20463;-65
2023/05/13 01:51:13;;;;;;;13.17;5.13;;;12.00;76.90;;;;;;5069890;28;20560;-65
2023/05/13 01:53:55;;;;;;;9.50;6.27;;;12.00;76.80;;;;;;5068974;28;20457;-66
2023/05/13 01:56:34;;;;;;;10.20;5.70;;;12.00;76.80;;;;;;5070883;28;20479;-67
2023/05/13 01:59:12;;;;;;;11.73;7.57;;;12.00;76.80;;;;;;5060676;28;20465;-66
2023/05/13 02:01:53;;;;;;;10.80;6.70;;;11.90;76.60;;;;;;5063518;28;20900;-66
2023/05/13 02:04:27;;;;;;;8.87;5.60;;;11.90;76.70;;;;;;5067975;28;20450;-66
2023/05/13 02:07:06;;;;;;;13.00;5.90;;;11.90;76.60;;;;;;5075889;28;20462;-66
2023/05/13 02:09:38;;;;;;;9.90;5.40;;;11.90;76.50;;;;;;5070505;28;20450;-66
2023/05/13 02:12:16;;;;;;;8.20;6.30;;;11.80;76.50;;;;;;5067213;28;20856;-66
2023/05/13 02:14:51;;;;;;;10.43;6.20;;;11.80;76.60;;;;;;5068667;28;20457;-66
2023/05/13 02:17:26;;;;;;;9.80;5.50;;;11.80;76.50;;;;;;5070964;28;21408;-66
2023/05/13 02:20:11;;;;;;;12.13;6.77;;;11.80;76.50;;;;;;5069430;28;20487;-66
2023/05/13 02:22:46;;;;;;;7.90;5.43;;;11.80;76.50;;;;;;5068325;28;20460;-66
2023/05/13 02:25:27;;;;;;;9.43;6.07;;;11.70;76.30;;;;;;5071894;28;20459;-66
2023/05/13 02:28:10;;;;;;;18.80;8.20;;;11.70;76.30;;;;;;5068191;28;20512;-66
2023/05/13 02:30:42;;;;;;;16.93;6.70;;;11.60;76.20;;;;;;5069415;28;20469;-66
2023/05/13 02:33:27;;;;;;;11.10;6.87;;;11.60;76.30;;;;;;5069286;28;20680;-66
2023/05/13 02:36:08;;;;;;;8.87;6.10;;;11.50;76.30;;;;;;5069065;28;20489;-66
2023/05/13 02:38:40;;;;;;;8.67;5.17;;;11.50;76.30;;;;;;5069845;28;20974;-66
2023/05/13 02:41:27;;;;;;;10.43;6.00;;;11.40;76.30;;;;;;5070421;28;20568;-66
2023/05/13 02:44:02;;;;;;;7.97;5.40;;;11.40;76.30;;;;;;5067530;28;20461;-66
2023/05/13 02:46:42;;;;;;;7.10;5.27;;;11.30;76.40;;;;;;5068497;28;20454;-66
2023/05/13 02:49:15;;;;;;;9.40;6.17;;;11.30;76.50;;;;;;5067865;28;20459;-66
2023/05/13 02:51:49;;;;;;;11.10;6.87;;;11.30;76.60;;;;;;5066424;28;20604;-66
2023/05/13 02:54:31;;;;;;;32.33;22.10;;;11.30;76.70;;;;;;5069881;28;20464;-66
2023/05/13 02:57:10;;;;;;;20.10;10.70;;;11.30;76.90;;;;;;5068676;28;20479;-66
2023/05/13 02:59:45;;;;;;;9.70;6.10;;;11.40;76.90;;;;;;5072365;28;20465;-66
2023/05/13 03:02:17;;;;;;;9.30;5.50;;;11.40;76.80;;;;;;5066033;28;20475;-66
2023/05/13 03:04:59;;;;;;;7.43;5.03;;;11.40;76.70;;;;;;5077215;28;20891;-66
2023/05/13 03:07:32;;;;;;;8.13;5.70;;;11.40;76.80;;;;;;5069515;28;20465;-66
2023/05/13 03:10:06;;;;;;;7.93;5.10;;;11.40;76.60;;;;;;5069787;28;20536;-66
2023/05/13 03:12:43;;;;;;;9.13;5.87;;;11.30;76.60;;;;;;5069791;28;20930;-65
2023/05/13 03:15:22;;;;;;;12.50;5.77;;;11.30;76.50;;;;;;5061204;28;20455;-66
2023/05/13 03:17:53;;;;;;;8.10;4.90;;;11.30;76.40;;;;;;5066889;28;20470;-66
2023/05/13 03:20:32;;;;;;;8.00;5.83;;;11.20;76.50;;;;;;5068257;28;20499;-65
2023/05/13 03:23:08;;;;;;;9.60;5.83;;;11.20;76.50;;;;;;5069809;28;20469;-65
2023/05/13 03:25:51;;;;;;;11.97;6.37;;;11.20;76.60;;;;;;5070729;28;20509;-66
2023/05/13 03:28:30;;;;;;;11.60;6.33;;;11.10;76.60;;;;;;5065793;28;20639;-66
2023/05/13 03:31:03;;;;;;;11.33;6.77;;;11.10;76.70;;;;;;5069333;28;20992;-66
2023/05/13 03:36:28;;;;;;;8.73;6.23;;;11.10;77.00;;;;;;5069475;28;20540;-66
2023/05/13 03:39:02;;;;;;;9.00;5.33;;;11.20;77.20;;;;;;5063242;28;20849;-66
2023/05/13 03:41:36;;;;;;;8.03;5.80;;;11.20;77.10;;;;;;5067404;28;20471;-66
2023/05/13 03:44:10;;;;;;;9.67;5.40;;;11.20;77.00;;;;;;5067690;28;20468;-66
2023/05/13 03:46:51;;;;;;;9.27;5.40;;;11.30;76.90;;;;;;5066973;28;20458;-66
2023/05/13 03:49:31;;;;;;;8.53;5.27;;;11.30;76.90;;;;;;5069550;28;20818;-66
2023/05/13 03:52:06;;;;;;;12.90;5.60;;;11.30;76.80;;;;;;5066214;28;20467;-66
2023/05/13 03:54:47;;;;;;;9.60;5.87;;;11.30;76.60;;;;;;5067207;28;20659;-65
2023/05/13 03:57:18;;;;;;;9.97;6.30;;;11.30;76.70;;;;;;5066661;28;21004;-65
2023/05/13 03:59:49;;;;;;;20.23;5.77;;;11.30;76.60;;;;;;5067686;28;20796;-65
2023/05/13 04:02:23;;;;;;;7.40;4.90;;;11.30;76.60;;;;;;5059050;28;20490;-66
2023/05/13 04:04:58;;;;;;;10.00;5.70;;;11.30;76.50;;;;;;5057630;28;20461;-66
2023/05/13 04:07:32;;;;;;;11.47;6.10;;;11.30;76.40;;;;;;5068631;28;20468;-66
2023/05/13 04:10:13;;;;;;;11.33;4.90;;;11.30;76.40;;;;;;5068552;28;20454;-66
2023/05/13 04:12:47;;;;;;;10.67;5.90;;;11.20;76.40;;;;;;5083565;28;20466;-66
2023/05/13 04:15:24;;;;;;;7.93;5.47;;;11.20;76.50;;;;;;5064964;28;20460;-66
2023/05/13 04:17:57;;;;;;;9.40;5.40;;;11.20;76.50;;;;;;5063334;28;20475;-66
2023/05/13 04:20:34;;;;;;;9.20;5.83;;;11.20;76.50;;;;;;5066531;28;20465;-66
2023/05/13 04:23:05;;;;;;;8.90;6.10;;;11.20;76.50;;;;;;5065250;28;20461;-66
2023/05/13 04:25:39;;;;;;;8.07;5.50;;;11.20;76.70;;;;;;5069256;28;20548;-66
2023/05/13 04:28:10;;;;;;;7.90;5.30;;;11.20;76.70;;;;;;5065607;28;20449;-66
2023/05/13 04:30:44;;;;;;;9.80;6.27;;;11.20;76.70;;;;;;5066394;28;20534;-66
2023/05/13 04:33:16;;;;;;;8.30;5.63;;;11.20;76.70;;;;;;5068438;28;20470;-66
2023/05/13 04:35:57;;;;;;;10.23;5.90;;;11.30;76.80;;;;;;5070021;28;20466;-66
2023/05/13 04:38:38;;;;;;;10.50;5.50;;;11.30;76.80;;;;;;5069052;28;20502;-66
2023/05/13 04:41:20;;;;;;;9.13;6.10;;;11.40;77.00;;;;;;5069227;28;20926;-66
2023/05/13 04:43:53;;;;;;;12.07;5.70;;;11.50;77.30;;;;;;5067951;28;20463;-66
2023/05/13 04:46:43;;;;;;;7.83;4.90;;;11.60;77.40;;;;;;5069419;28;20459;-66
2023/05/13 04:49:31;;;;;;;11.83;5.47;;;11.80;77.40;;;;;;5064834;28;20479;-66
2023/05/13 04:52:03;;;;;;;10.63;5.53;;;11.90;77.50;;;;;;5069469;28;20460;-66
2023/05/13 04:54:42;;;;;;;9.43;5.33;;;12.00;77.30;;;;;;5067355;28;20451;-66
2023/05/13 04:57:27;;;;;;;11.80;5.50;;;12.20;77.40;;;;;;5067613;28;20543;-65
2023/05/13 04:59:56;;;;;;;8.00;5.00;;;12.30;77.40;;;;;;5064731;28;20456;-66
2023/05/13 05:02:32;;;;;;;8.13;4.40;;;12.40;77.50;;;;;;5065308;28;20490;-66
2023/05/13 05:05:13;;;;;;;8.50;4.93;;;12.60;77.50;;;;;;5063970;28;20561;-66
2023/05/13 05:07:54;;;;;;;8.50;4.83;;;12.80;77.40;;;;;;5082004;28;20819;-66
2023/05/13 05:10:33;;;;;;;8.07;5.70;;;12.90;77.20;;;;;;5067293;28;20549;-66
2023/05/13 05:13:07;;;;;;;8.43;6.40;;;13.00;77.50;;;;;;5068763;28;20938;-66
2023/05/13 05:15:39;;;;;;;8.27;5.40;;;13.20;77.90;;;;;;5068829;28;21012;-66
2023/05/13 05:18:15;;;;;;;13.80;4.83;;;13.60;78.00;;;;;;5064587;28;20499;-66
2023/05/13 05:20:48;;;;;;;12.13;5.40;;;14.10;77.40;;;;;;5066667;28;20473;-66
2023/05/13 05:23:27;;;;;;;8.13;5.10;;;14.70;76.30;;;;;;5067174;28;20458;-66
2023/05/13 05:26:07;;;;;;;10.77;5.50;;;15.20;75.10;;;;;;5067513;28;20472;-66
2023/05/13 05:28:53;;;;;;;11.67;5.67;;;15.80;74.30;;;;;;5068420;28;20460;-66
2023/05/13 05:31:29;;;;;;;9.50;6.60;;;16.50;73.50;;;;;;5082522;28;20482;-66
2023/05/13 05:34:09;;;;;;;9.90;7.87;;;17.20;72.80;;;;;;5061398;28;20536;-66
2023/05/13 05:36:42;;;;;;;12.40;9.10;;;17.90;72.00;;;;;;5050662;28;20513;-66
2023/05/13 05:39:13;;;;;;;17.33;10.53;;;18.60;71.60;;;;;;5069305;28;21009;-66
2023/05/13 05:44:35;;;;;;;28.13;17.20;;;20.10;70.00;;;;;;5069492;28;20476;-67
2023/05/13 05:47:10;;;;;;;21.27;14.20;;;20.90;68.70;;;;;;5066223;28;20500;-66
2023/05/13 05:49:55;;;;;;;12.50;10.30;;;21.60;68.00;;;;;;5067978;28;20456;-67
2023/05/13 05:52:30;;;;;;;10.47;7.10;;;22.30;66.50;;;;;;5070314;28;20567;-67
2023/05/13 05:55:05;;;;;;;9.30;6.37;;;23.00;65.90;;;;;;5071532;28;20545;-67
2023/05/13 05:57:39;;;;;;;8.43;4.87;;;23.60;64.90;;;;;;5048635;28;20678;-66
2023/05/13 06:00:13;;;;;;;9.77;5.30;;;24.10;63.50;;;;;;5068580;28;20551;-67
2023/05/13 06:02:44;;;;;;;8.97;5.70;;;24.50;61.90;;;;;;5069991;28;21117;-67
2023/05/13 06:05:37;;;;;;;7.60;4.93;;;24.60;61.30;;;;;;5069752;28;20457;-67
2023/05/13 06:08:18;;;;;;;11.93;7.50;;;24.80;60.30;;;;;;5070550;28;20466;-64
2023/05/13 06:10:58;;;;;;;12.40;8.80;;;25.10;59.20;;;;;;5071564;28;20453;-66
2023/05/13 06:13:38;;;;;;;13.93;8.33;;;24.30;57.40;;;;;;5067053;28;20468;-66
2023/05/13 06:16:12;;;;;;;18.00;5.50;;;22.80;58.00;;;;;;5068644;28;20451;-67
2023/05/13 06:18:48;;;;;;;13.57;4.80;;;21.20;59.10;;;;;;5069757;28;20947;-67
2023/05/13 06:21:26;;;;;;;7.50;5.00;;;19.80;60.30;;;;;;5067076;28;20461;-66
2023/05/13 06:24:01;;;;;;;8.30;5.10;;;18.70;61.60;;;;;;5069149;28;21032;-66
2023/05/13 06:26:37;;;;;;;7.30;4.97;;;17.80;62.60;;;;;;5070850;28;20449;-66
2023/05/13 06:29:18;;;;;;;9.53;5.30;;;17.20;63.60;;;;;;5068243;28;20452;-66
2023/05/13 06:31:53;;;;;;;9.93;5.43;;;16.70;64.50;;;;;;5067472;28;20784;-66
2023/05/13 06:34:32;;;;;;;7.90;5.10;;;16.40;65.20;;;;;;5066579;28;20571;-66
2023/05/13 06:37:12;;;;;;;6.80;4.13;;;16.10;65.70;;;;;;5068854;28;20533;-66
2023/05/13 06:39:45;;;;;;;7.80;4.73;;;15.90;66.40;;;;;;5064230;28;20483;-66
2023/05/13 06:42:23;;;;;;;8.60;4.43;;;15.70;66.90;;;;;;5062649;28;20461;-66
2023/05/13 06:45:02;;;;;;;7.47;4.60;;;15.60;67.60;;;;;;5062901;28;20459;-66
2023/05/13 06:47:32;;;;;;;7.50;4.80;;;15.50;67.80;;;;;;5068062;28;20911;-66
2023/05/13 06:50:08;;;;;;;10.50;4.70;;;15.40;68.20;;;;;;5067669;28;20507;-66
2023/05/13 06:52:42;;;;;;;6.67;4.60;;;15.30;68.70;;;;;;5076436;28;20556;-66
2023/05/13 06:55:19;;;;;;;8.17;4.53;;;15.20;69.00;;;;;;5067363;28;20920;-66
2023/05/13 07:00:38;;;;;;;8.60;4.93;;;15.10;69.40;;;;;;5064282;28;20976;-66
2023/05/13 07:03:10;;;;;;;8.57;4.63;;;15.10;69.60;;;;;;5067657;28;20782;-66
2023/05/13 07:05:44;;;;;;;8.57;4.03;;;15.10;69.70;;;;;;5066098;28;20465;-66
2023/05/13 07:08:20;;;;;;;7.27;4.40;;;15.10;69.80;;;;;;5066862;28;20537;-66
2023/05/13 07:10:58;;;;;;;6.47;4.87;;;15.10;70.00;;;;;;5069102;28;20916;-66
2023/05/13 07:13:33;;;;;;;10.00;4.90;;;15.20;70.10;;;;;;5065994;28;20463;-66
2023/05/13 07:16:10;;;;;;;6.90;4.13;;;15.20;70.20;;;;;;5068994;28;20954;-66
2023/05/13 07:18:43;;;;;;;9.43;3.97;;;15.20;70.30;;;;;;5063282;28;20458;-66
2023/05/13 07:21:24;;;;;;;8.60;3.97;;;15.30;70.40;;;;;;5069158;28;20942;-66
2023/05/13 07:24:01;;;;;;;6.33;4.00;;;15.30;70.40;;;;;;5069316;28;20477;-66
2023/05/13 07:26:33;;;;;;;7.00;4.30;;;15.40;70.40;;;;;;5067186;28;20462;-66
2023/05/13 07:29:05;;;;;;;5.97;4.27;;;15.40;70.40;;;;;;5071173;28;20576;-66
2023/05/13 07:31:37;;;;;;;6.40;4.10;;;15.40;70.40;;;;;;5065874;28;20489;-66
2023/05/13 07:34:07;;;;;;;6.97;4.27;;;15.50;70.20;;;;;;5066013;28;20487;-66
2023/05/13 07:36:38;;;;;;;8.43;4.80;;;15.50;70.40;;;;;;5070578;28;20463;-66
2023/05/13 07:39:11;;;;;;;11.17;4.20;;;15.60;70.40;;;;;;5070003;28;20522;-66
2023/05/13 07:41:44;;;;;;;6.37;4.10;;;15.60;70.40;;;;;;5067363;28;20654;-66
2023/05/13 07:44:28;;;;;;;6.60;4.00;;;15.60;70.30;;;;;;5067334;28;20539;-66
2023/05/13 07:47:05;;;;;;;15.67;4.17;;;15.70;70.30;;;;;;5066757;28;20465;-66
2023/05/13 07:49:35;;;;;;;8.67;5.00;;;15.70;70.50;;;;;;5068124;28;20464;-66
2023/05/13 07:52:07;;;;;;;7.10;4.33;;;15.80;70.40;;;;;;5067298;28;20457;-66
2023/05/13 07:54:49;;;;;;;7.53;4.30;;;15.80;70.30;;;;;;5067765;28;20460;-65
2023/05/13 07:57:20;;;;;;;8.73;4.33;;;15.90;70.30;;;;;;5066408;28;20963;-65
2023/05/13 08:00:02;;;;;;;7.97;4.67;;;16.00;70.30;;;;;;5061693;28;20472;-65
2023/05/13 08:05:41;;;;;;;6.47;3.83;;;16.10;69.80;;;;;;5028619;28;20943;-66
2023/05/13 08:08:19;;;;;;;11.40;4.47;;;16.20;69.60;;;;;;5029371;28;20490;-66
2023/05/13 08:11:01;;;;;;;6.57;4.17;;;16.10;69.50;;;;;;5027302;28;20459;-66
2023/05/13 08:13:38;;;;;;;10.90;4.77;;;16.20;69.40;;;;;;5027173;28;20965;-66
2023/05/13 08:16:13;;;;;;;10.03;5.23;;;16.30;69.50;;;;;;5026488;28;20467;-66
2023/05/13 08:18:53;;;;;;;9.23;4.03;;;16.30;69.50;;;;;;5022725;28;20466;-66
2023/05/13 08:21:28;;;;;;;13.33;4.27;;;16.40;69.40;;;;;;5025622;28;20563;-65
2023/05/13 08:24:16;;;;;;;10.70;3.53;;;16.50;69.30;;;;;;5011933;28;20486;-64
2023/05/13 08:26:58;;;;;;;7.10;4.20;;;16.50;69.10;;;;;;5028780;28;20967;-65
2023/05/13 08:29:29;;;;;;;6.90;4.30;;;16.50;68.90;;;;;;5029055;28;20916;-65
2023/05/13 08:32:02;;;;;;;9.13;4.27;;;16.50;68.90;;;;;;5026146;28;20975;-65
2023/05/13 08:34:33;;;;;;;6.27;4.00;;;16.60;69.00;;;;;;5053463;28;20475;-66
2023/05/13 08:37:04;;;;;;;7.83;4.10;;;16.60;69.10;;;;;;5066604;28;20514;-65
2023/05/13 08:39:42;;;;;;;6.03;4.27;;;16.70;69.00;;;;;;5065524;28;20531;-66
2023/05/13 08:42:18;;;;;;;7.93;4.17;;;16.70;68.90;;;;;;5068025;28;20449;-66
2023/05/13 08:44:52;;;;;;;7.07;4.47;;;16.70;68.90;;;;;;5066296;28;20457;-66
2023/05/13 08:47:34;;;;;;;7.50;4.37;;;16.70;68.50;;;;;;5065968;28;20459;-66
2023/05/13 08:50:08;;;;;;;6.60;3.77;;;16.70;68.50;;;;;;5066136;28;20453;-63
2023/05/13 08:52:45;;;;;;;8.40;4.23;;;16.70;68.40;;;;;;5062724;28;21095;-63
2023/05/13 08:55:20;;;;;;;7.07;4.03;;;16.80;68.50;;;;;;5066268;28;20769;-63
2023/05/13 08:58:09;;;;;;;8.50;3.80;;;16.80;68.50;;;;;;5065157;28;20474;-62
2023/05/13 09:00:46;;;;;;;5.60;3.50;;;16.90;68.40;;;;;;5064544;28;20588;-63
2023/05/13 09:03:20;;;;;;;7.87;4.10;;;16.90;68.40;;;;;;5064272;28;20835;-63
2023/05/13 09:05:50;;;;;;;8.17;3.60;;;16.90;68.40;;;;;;5063987;28;20583;-62
2023/05/13 09:08:31;;;;;;;5.50;3.63;;;17.00;68.40;;;;;;5068640;28;20512;-62
2023/05/13 09:11:09;;;;;;;6.80;4.20;;;17.00;68.30;;;;;;5068936;28;20465;-62
2023/05/13 09:13:47;;;;;;;7.53;4.17;;;17.00;68.10;;;;;;5064185;28;20458;-62
2023/05/13 09:16:20;;;;;;;9.70;3.83;;;17.10;68.10;;;;;;5068983;28;20472;-63
2023/05/13 09:19:01;;;;;;;7.40;4.20;;;17.10;68.00;;;;;;5069057;28;20449;-62
2023/05/13 09:21:41;;;;;;;7.40;3.93;;;17.10;68.00;;;;;;5068258;28;20488;-63
2023/05/13 09:24:17;;;;;;;7.67;3.77;;;17.20;67.80;;;;;;5066219;28;20477;-62
2023/05/13 09:26:53;;;;;;;6.93;4.20;;;17.30;67.70;;;;;;5067895;28;20582;-62
2023/05/13 09:29:40;;;;;;;6.70;4.33;;;17.30;67.50;;;;;;5070134;28;20571;-62
2023/05/13 09:32:14;;;;;;;33.97;6.10;;;17.40;67.30;;;;;;5067995;28;20490;-62
2023/05/13 09:34:48;;;;;;;13.93;4.87;;;17.40;67.40;;;;;;5067656;28;20560;-62
2023/05/13 09:37:23;;;;;;;8.40;4.80;;;17.50;67.20;;;;;;5066799;28;20462;-62
2023/05/13 09:39:55;;;;;;;42.23;5.93;;;17.50;67.40;;;;;;5069326;28;21008;-63
2023/05/13 09:42:35;;;;;;;7.97;4.77;;;17.60;67.30;;;;;;5066932;28;20485;-62
2023/05/13 09:45:11;;;;;;;8.13;4.77;;;17.60;67.20;;;;;;5067613;28;20485;-63
2023/05/13 09:47:46;;;;;;;7.00;4.37;;;17.70;67.00;;;;;;5068025;28;20454;-63
2023/05/13 09:50:17;;;;;;;7.23;4.80;;;17.80;66.90;;;;;;5067712;28;20492;-62
2023/05/13 09:52:55;;;;;;;11.67;5.87;;;17.80;66.50;;;;;;5066241;28;20489;-63
2023/05/13 09:55:30;;;;;;;7.07;4.47;;;17.80;66.30;;;;;;5071601;28;20846;-62
2023/05/13 09:58:06;;;;;;;7.00;4.07;;;17.90;66.50;;;;;;5068235;28;20438;-62
2023/05/13 10:00:46;;;;;;;7.50;3.90;;;17.90;66.00;;;;;;5065780;28;20855;-63
2023/05/13 10:03:17;;;;;;;10.43;5.47;;;17.90;65.70;;;;;;5070565;28;20547;-62
2023/05/13 10:05:51;;;;;;;14.00;6.80;;;17.90;65.60;;;;;;5067179;28;20476;-62
2023/05/13 10:08:30;;;;;;;7.67;4.93;;;18.00;65.60;;;;;;5070143;28;21164;-62
2023/05/13 10:11:02;;;;;;;13.70;5.40;;;18.10;65.60;;;;;;5070965;28;20437;-62
2023/05/13 10:13:38;;;;;;;8.00;4.43;;;18.10;65.50;;;;;;5069742;28;20457;-62
2023/05/13 10:16:19;;;;;;;7.13;4.00;;;18.10;65.30;;;;;;5070465;28;20452;-63
2023/05/13 10:18:51;;;;;;;7.67;4.47;;;18.00;65.00;;;;;;5068109;28;20944;-62
2023/05/13 10:21:29;;;;;;;9.63;5.23;;;18.00;65.00;;;;;;5080661;28;20559;-62
2023/05/13 10:24:07;;;;;;;8.50;5.00;;;18.10;65.00;;;;;;5071427;28;20461;-62
2023/05/13 10:26:40;;;;;;;10.57;5.40;;;18.10;64.90;;;;;;5071291;28;20556;-62
2023/05/13 10:29:11;;;;;;;13.43;5.60;;;18.10;64.90;;;;;;5069526;28;20508;-63
2023/05/13 10:31:49;;;;;;;9.17;5.47;;;18.20;65.00;;;;;;5069670;28;20476;-62
2023/05/13 10:34:24;;;;;;;9.47;5.10;;;18.30;65.00;;;;;;5068881;28;20489;-62
2023/05/13 10:37:12;;;;;;;8.90;5.30;;;18.30;64.90;;;;;;5071825;28;20936;-62
2023/05/13 10:40:27;;;;;;;9.03;4.50;;;18.30;64.50;;;;;;5068994;28;20462;-62
2023/05/13 10:43:17;;;;;;;7.13;4.00;;;18.30;64.30;;;;;;5069040;28;20553;-62
2023/05/13 10:45:54;;;;;;;8.00;4.70;;;18.30;64.20;;;;;;5068107;28;20782;-62
2023/05/13 10:48:44;;;;;;;8.30;4.57;;;18.40;64.30;;;;;;5067772;28;20528;-62
2023/05/13 10:51:25;;;;;;;9.17;5.17;;;18.40;64.00;;;;;;5068938;28;20932;-62
2023/05/13 10:53:57;;;;;;;7.00;4.77;;;18.40;63.90;;;;;;5069583;28;20480;-62
2023/05/13 10:56:35;;;;;;;8.23;4.80;;;18.40;63.80;;;;;;5069790;28;20882;-63
2023/05/13 10:59:10;;;;;;;11.80;4.97;;;18.50;64.00;;;;;;5071416;28;20824;-62
2023/05/13 11:01:46;;;;;;;10.43;5.23;;;18.50;63.90;;;;;;5068412;28;20685;-63
2023/05/13 11:04:21;;;;;;;13.23;5.00;;;18.50;63.80;;;;;;5068041;28;20469;-62
2023/05/13 11:07:01;;;;;;;8.53;5.03;;;18.60;63.60;;;;;;5070713;28;20567;-63
2023/05/13 11:09:33;;;;;;;6.77;4.43;;;18.60;63.50;;;;;;5068170;28;20518;-63
2023/05/13 11:12:07;;;;;;;8.20;4.77;;;18.70;63.50;;;;;;5068237;28;20456;-62
2023/05/13 11:14:38;;;;;;;9.07;4.20;;;18.70;63.50;;;;;;5065850;28;20687;-62
2023/05/13 11:17:17;;;;;;;10.40;5.47;;;18.70;63.50;;;;;;5069033;28;20517;-62
2023/05/13 11:19:52;;;;;;;11.20;4.80;;;18.80;63.40;;;;;;5067107;28;21012;-62
2023/05/13 11:22:31;;;;;;;7.93;4.90;;;18.80;63.40;;;;;;5069715;28;21036;-62
2023/05/13 11:25:10;;;;;;;8.50;4.37;;;18.90;63.30;;;;;;5069968;28;20487;-62
2023/05/13 11:27:47;;;;;;;12.13;4.87;;;18.90;63.10;;;;;;5069247;28;20816;-63
2023/05/13 11:30:23;;;;;;;8.63;4.80;;;18.80;63.00;;;;;;5066882;28;20471;-63
2023/05/13 11:33:07;;;;;;;7.10;3.90;;;18.90;63.00;;;;;;5067218;28;20443;-63
2023/05/13 11:35:42;;;;;;;8.90;4.30;;;18.90;63.00;;;;;;5067423;28;20463;-63
2023/05/13 11:38:27;;;;;;;7.80;4.80;;;19.00;62.80;;;;;;5067431;28;20459;-63
2023/05/13 11:41:05;;;;;;;10.10;4.63;;;19.00;62.80;;;;;;5069546;28;20464;-62
2023/05/13 11:43:40;;;;;;;6.40;3.93;;;19.00;62.70;;;;;;5067436;28;20451;-63
2023/05/13 11:46:21;;;;;;;10.50;3.40;;;19.10;62.70;;;;;;5057037;28;20452;-63
2023/05/13 11:49:01;;;;;;;6.13;3.60;;;19.20;62.50;;;;;;5067317;28;20536;-63
2023/05/13 11:51:47;;;;;;;6.40;3.97;;;19.20;62.60;;;;;;5067612;28;20533;-63
2023/05/13 11:54:26;;;;;;;6.03;3.37;;;19.20;62.30;;;;;;5066348;28;20998;-63
2023/05/13 11:57:01;;;;;;;6.80;3.23;;;19.20;61.80;;;;;;5068630;28;20458;-62
2023/05/13 11:59:44;;;;;;;6.73;3.50;;;19.20;61.80;;;;;;5067012;28;20521;-63
2023/05/13 12:02:18;;;;;;;5.80;3.47;;;19.20;61.60;;;;;;5066668;28;21152;-62
2023/05/13 12:04:46;;;;;;;5.60;3.47;;;19.20;61.30;;;;;;5069119;28;20471;-62
2023/05/13 12:07:22;;;;;;;7.07;3.37;;;19.20;61.10;;;;;;5068854;28;20451;-63
2023/05/13 12:10:02;;;;;;;9.23;4.00;;;19.30;60.90;;;;;;5069222;28;20453;-62
2023/05/13 12:13:01;;;;;;;7.00;4.13;;;19.30;60.90;;;;;;5068000;28;20461;-62
2023/05/13 12:15:39;;;;;;;10.80;3.40;;;19.30;61.00;;;;;;5065412;28;20457;-62
2023/05/13 12:18:12;;;;;;;8.07;4.60;;;19.30;60.70;;;;;;5064274;28;21000;-62
2023/05/13 12:20:41;;;;;;;6.60;3.53;;;19.30;60.60;;;;;;5069683;28;20485;-62
2023/05/13 12:23:19;;;;;;;6.20;3.13;;;19.30;60.80;;;;;;5067966;28;20998;-63
2023/05/13 12:25:59;;;;;;;8.90;4.27;;;19.30;60.80;;;;;;5068613;28;20467;-63
2023/05/13 12:28:32;;;;;;;7.43;3.50;;;19.30;60.80;;;;;;5065224;28;20518;-63
2023/05/13 12:31:04;;;;;;;8.27;4.07;;;19.30;60.90;;;;;;5067465;28;20473;-62
2023/05/13 12:33:41;;;;;;;6.77;4.13;;;19.30;61.00;;;;;;5065745;28;20944;-62
2023/05/13 12:36:24;;;;;;;6.73;4.40;;;19.30;60.90;;;;;;5061164;28;20461;-62
2023/05/13 12:39:11;;;;;;;7.10;4.30;;;19.30;61.00;;;;;;5067999;28;20488;-62
2023/05/13 12:41:50;;;;;;;8.60;4.60;;;19.20;61.20;;;;;;5066792;28;20461;-63
2023/05/13 12:44:28;;;;;;;11.60;4.73;;;19.20;61.30;;;;;;5069958;28;20453;-62
2023/05/13 12:47:00;;;;;;;9.30;4.77;;;19.30;61.50;;;;;;5071798;28;20905;-63
2023/05/13 12:49:41;;;;;;;12.80;4.90;;;19.30;61.40;;;;;;5071968;28;20480;-62
2023/05/13 12:52:19;;;;;;;9.60;4.57;;;19.30;61.60;;;;;;5071491;28;20447;-63
2023/05/13 12:55:03;;;;;;;9.57;4.60;;;19.30;61.70;;;;;;5070851;28;20468;-62
2023/05/13 12:57:43;;;;;;;8.47;5.03;;;19.30;61.80;;;;;;5071062;28;20475;-62
2023/05/13 13:00:17;;;;;;;9.10;4.00;;;19.30;61.90;;;;;;5073878;28;20453;-63
2023/05/13 13:02:46;;;;;;;7.47;4.40;;;19.30;62.10;;;;;;5070853;28;20545;-63
2023/05/13 13:05:22;;;;;;;7.77;4.30;;;19.30;62.10;;;;;;5072006;28;20516;-63
2023/05/13 13:08:03;;;;;;;10.40;5.10;;;19.30;62.20;;;;;;5071919;28;20445;-63
2023/05/13 13:10:42;;;;;;;8.90;3.90;;;19.30;62.40;;;;;;5071206;28;20454;-62
2023/05/13 13:13:21;;;;;;;8.30;4.30;;;19.30;62.40;;;;;;5073816;28;20878;-62
2023/05/13 13:16:03;;;;;;;8.17;4.20;;;19.30;62.50;;;;;;5073042;28;20993;-63
2023/05/13 13:18:40;;;;;;;7.23;3.83;;;19.30;62.70;;;;;;5076353;28;20459;-62
2023/05/13 13:21:13;;;;;;;9.37;3.97;;;19.40;62.60;;;;;;5072062;28;20492;-63
2023/05/13 13:23:53;;;;;;;6.67;4.40;;;19.40;62.60;;;;;;5069547;28;20488;-63
2023/05/13 13:26:25;;;;;;;7.27;3.93;;;19.50;62.60;;;;;;5067574;28;20461;-62
2023/05/13 13:29:00;;;;;;;5.93;3.60;;;19.50;62.70;;;;;;5067351;28;20467;-62
2023/05/13 13:31:30;;;;;;;8.70;4.47;;;19.60;62.40;;;;;;5069990;28;21023;-62
2023/05/13 13:34:03;;;;;;;9.37;4.17;;;19.60;62.30;;;;;;5070490;28;20552;-63
2023/05/13 13:36:34;;;;;;;6.63;3.80;;;19.60;62.10;;;;;;5068750;28;20453;-63
2023/05/13 13:39:14;;;;;;;7.03;4.03;;;19.60;62.20;;;;;;5070833;28;20546;-63
2023/05/13 13:41:51;;;;;;;5.97;3.83;;;19.60;61.90;;;;;;5071929;28;20460;-63
2023/05/13 13:44:26;;;;;;;6.30;3.93;;;19.60;61.80;;;;;;5070632;28;20540;-62
2023/05/13 13:47:02;;;;;;;9.70;3.60;;;19.60;61.60;;;;;;5072383;28;20449;-62